NCAR-RAP Real-Time Weather Data

Output produced by METARs form (06 May 2021  15:16 UTC)
found at http://weather.rap.ucar.edu/surface/
 
KORF 061451Z 36011KT 10SM CLR 16/03 A3007 RMK AO2 SLP180 T01610033 53008
KORF 061351Z 36013G19KT 10SM CLR 15/04 A3006 RMK AO2 SLP178 T01500039
KORF 061251Z 35013G21KT 10SM CLR 15/04 A3004 RMK AO2 SLP173 T01500039
KORF 061151Z 36016G23KT 10SM CLR 14/03 A3004 RMK AO2 SLP172 T01440033 10178 20144 52020
KORF 061051Z 36014G24KT 10SM CLR 14/04 A3002 RMK AO2 SLP164 T01440044
KORF 060951Z 35013KT 10SM BKN060 15/05 A3000 RMK AO2 SLP159 T01500050
KORF 060851Z 36014G22KT 10SM OVC060 16/06 A2998 RMK AO2 SLP151 T01610056 51016
KORF 060751Z 35015G23KT 10SM OVC060 17/06 A2997 RMK AO2 PK WND 36026/0656 SLP147 T01670056
KORF 060651Z AUTO 36016G24KT 10SM OVC060 17/06 A2995 RMK AO2 SLP141 T01720061
KORF 060551Z AUTO 36014G22KT 10SM OVC060 18/08 A2993 RMK AO2 SLP135 T01780078 10256 20178 51013
KORF 060451Z 35015G25KT 10SM FEW120 19/07 A2993 RMK AO2 PK WND 36027/0420 SLP134 T01890067 403110189
KORF 060351Z 36016G29KT 10SM OVC055 19/08 A2993 RMK AO2 PK WND 35031/0312 SLP133 T01940078
KORF 060251Z 35014G23KT 10SM OVC047 21/13 A2990 RMK AO2 SLP123 T02110128 51043
KORF 060151Z 36010G20KT 10SM SCT035 OVC050 22/16 A2986 RMK AO2 PRESRR SLP109 T02220156
KORF 060051Z 02011KT 10SM SCT075 BKN090 22/17 A2981 RMK AO2 SLP095 T02220172
KORF 052351Z 02013G18KT 10SM BKN070 BKN090 27/16 A2977 RMK AO2 PRESRR SLP080 T02670161 10311 20267 53023